Time;durP1;ratioP1;P1;durP2;ratioP2;P2;SDS_P1;SDS_P2;PMS_P1;PMS_P2;Temp;Humidity;BMP_temperature;BMP_pressure;BME280_temperature;BME280_humidity;BME280_pressure;Samples;Min_cycle;Max_cycle;Signal;HPM_P1;HPM_P2
2024/02/29 00:04:15;;;;;;;167.60;56.80;;;;;;;8.64;100.00;99518.29;271354;1269;22212;-92
2024/02/29 00:11:05;;;;;;;130.30;49.00;;;;;;;8.63;100.00;99522.01;272531;1270;22238;-91
2024/02/29 00:18:02;;;;;;;127.40;47.20;;;;;;;8.62;100.00;99523.46;271397;1269;23000;-91
2024/02/29 00:24:06;;;;;;;139.70;49.00;;;;;;;8.63;100.00;99519.18;271918;1270;23337;-92
2024/02/29 00:30:59;;;;;;;137.80;51.60;;;;;;;8.64;100.00;99524.52;270727;1269;22660;-93
2024/02/29 00:37:05;;;;;;;145.50;50.10;;;;;;;8.65;100.00;99526.48;272105;1269;22343;-92
2024/02/29 00:43:22;;;;;;;144.60;50.20;;;;;;;8.61;100.00;99527.27;269660;1268;22697;-92
2024/02/29 00:49:27;;;;;;;141.60;49.60;;;;;;;8.62;100.00;99529.54;269670;1270;22566;-91
2024/02/29 00:55:29;;;;;;;150.00;54.00;;;;;;;8.60;100.00;99522.79;270101;1269;22542;-93
2024/02/29 01:01:48;;;;;;;122.80;47.00;;;;;;;8.56;100.00;99518.84;271227;1269;22592;-92
2024/02/29 01:07:51;;;;;;;137.90;52.00;;;;;;;8.53;100.00;99520.80;272684;1269;23906;-92
2024/02/29 01:14:04;;;;;;;;;;;;;;;;;;;;;
2024/02/29 01:20:37;;;;;;;141.70;50.60;;;;;;;8.47;100.00;99514.45;270085;1266;23825;-93
2024/02/29 01:26:48;;;;;;;151.00;53.10;;;;;;;8.44;100.00;99509.40;270495;1269;22212;-93
2024/02/29 01:32:51;;;;;;;;;;;;;;;8.43;100.00;99506.54;269711;1269;23334;-91
2024/02/29 01:38:53;;;;;;;113.00;45.40;;;;;;;8.38;100.00;99506.11;269805;1268;22550;-90
2024/02/29 01:44:56;;;;;;;113.10;45.30;;;;;;;8.33;100.00;99503.76;269305;1269;22557;-94
2024/02/29 01:51:04;;;;;;;108.30;41.60;;;;;;;8.31;100.00;99506.52;269809;1269;22807;-92
2024/02/29 01:57:09;;;;;;;83.80;34.50;;;;;;;8.28;100.00;99507.16;269958;1268;22339;-92
2024/02/29 02:03:25;;;;;;;89.90;34.90;;;;;;;8.24;100.00;99508.77;269845;1268;22964;-93
2024/02/29 02:09:27;;;;;;;74.90;30.90;;;;;;;8.19;100.00;99502.09;269842;1268;22573;-92
2024/02/29 02:15:38;;;;;;;79.20;32.60;;;;;;;8.16;100.00;99504.81;271030;1269;22205;-93
2024/02/29 02:21:49;;;;;;;93.70;37.70;;;;;;;8.10;100.00;99499.76;270415;1268;23923;-93
2024/02/29 02:28:01;;;;;;;98.00;38.30;;;;;;;8.08;100.00;99494.86;269815;1269;23660;-92
2024/02/29 02:34:13;;;;;;;90.50;37.10;;;;;;;8.04;100.00;99492.70;270728;1260;85315;-91
2024/02/29 02:40:18;;;;;;;96.40;36.30;;;;;;;8.01;100.00;99496.68;272713;1270;22275;-92
2024/02/29 02:46:26;;;;;;;85.20;34.10;;;;;;;7.99;100.00;99497.19;270456;1270;22520;-91
2024/02/29 02:52:28;;;;;;;95.50;35.90;;;;;;;7.98;100.00;99494.96;270220;1270;23145;-91
2024/02/29 02:58:35;;;;;;;91.50;34.00;;;;;;;7.97;100.00;99489.39;270226;1270;23381;-92
2024/02/29 03:04:41;;;;;;;72.20;31.20;;;;;;;7.96;100.00;99492.55;270244;1262;22591;-91
2024/02/29 03:10:43;;;;;;;72.30;32.40;;;;;;;7.98;100.00;99496.75;269568;1270;24322;-91
2024/02/29 03:16:47;;;;;;;81.50;33.30;;;;;;;8.00;100.00;99504.05;270025;1268;22578;-92
2024/02/29 03:22:59;;;;;;;78.90;32.50;;;;;;;7.99;100.00;99500.73;269662;1270;23752;-92
2024/02/29 03:29:11;;;;;;;79.20;32.50;;;;;;;7.98;100.00;99502.98;270117;1270;24245;-91
2024/02/29 03:35:24;;;;;;;75.20;32.00;;;;;;;7.98;100.00;99501.73;270344;1270;22664;-92
2024/02/29 03:41:29;;;;;;;77.90;34.10;;;;;;;7.98;100.00;99497.77;270734;1270;22513;-91
2024/02/29 03:47:47;;;;;;;78.50;32.60;;;;;;;7.99;100.00;99497.48;270614;1270;22699;-91
2024/02/29 03:53:53;;;;;;;92.60;37.00;;;;;;;7.99;100.00;99499.10;270311;1270;22565;-92
2024/02/29 04:00:00;;;;;;;110.70;39.10;;;;;;;7.97;100.00;99495.93;270449;1270;22580;-91
2024/02/29 04:06:08;;;;;;;113.70;42.30;;;;;;;7.93;100.00;99488.59;271043;1270;22558;-92
2024/02/29 04:12:12;;;;;;;107.10;42.10;;;;;;;7.90;100.00;99486.39;270810;1270;22563;-91
2024/02/29 04:18:18;;;;;;;102.00;42.00;;;;;;;7.88;100.00;99485.33;270319;1270;22564;-92
2024/02/29 04:24:41;;;;;;;113.50;44.50;;;;;;;7.86;100.00;99482.08;269815;1271;22669;-92
2024/02/29 04:30:50;;;;;;;96.70;39.80;;;;;;;7.84;100.00;99475.48;269738;1271;22567;-92
2024/02/29 04:36:59;;;;;;;98.50;39.80;;;;;;;7.82;100.00;99471.13;272621;1270;22326;-91
2024/02/29 04:43:04;;;;;;;89.40;39.20;;;;;;;7.81;100.00;99474.28;272728;1270;22350;-91
2024/02/29 04:49:09;;;;;;;86.10;36.80;;;;;;;7.80;100.00;99467.57;272748;1270;22355;-91
2024/02/29 04:55:14;;;;;;;79.40;35.70;;;;;;;7.80;100.00;99466.56;271064;1270;1933500;-92
2024/02/29 05:01:20;;;;;;;85.20;36.90;;;;;;;7.81;100.00;99461.36;272412;1264;22159;-91
2024/02/29 05:07:27;;;;;;;68.90;32.30;;;;;;;7.82;100.00;99464.52;271345;1270;23331;-92
2024/02/29 05:13:31;;;;;;;69.80;32.40;;;;;;;7.84;100.00;99469.85;272412;1259;88425;-92
2024/02/29 05:19:58;;;;;;;;;;;;;;;;;;;;;
2024/02/29 05:26:03;;;;;;;73.40;33.10;;;;;;;7.86;100.00;99476.62;272597;1270;22456;-91
2024/02/29 05:32:48;;;;;;;;;;;;;;;;;;;;;
2024/02/29 05:39:13;;;;;;;71.00;32.90;;;;;;;7.85;100.00;99491.70;268460;1278;22247;-94
2024/02/29 05:45:22;;;;;;;67.00;32.30;;;;;;;7.84;100.00;99496.02;267765;1278;24089;-92
2024/02/29 05:51:25;;;;;;;69.10;32.80;;;;;;;7.84;100.00;99493.45;269753;1270;22370;-93
2024/02/29 05:57:35;;;;;;;64.70;30.60;;;;;;;7.82;100.00;99490.75;270573;1270;22277;-94
2024/02/29 06:03:42;;;;;;;73.60;33.70;;;;;;;7.80;100.00;99489.06;270074;1271;22909;-92
2024/02/29 06:09:54;;;;;;;68.80;31.60;;;;;;;7.81;100.00;99489.62;272434;1270;23786;-91
2024/02/29 06:16:00;;;;;;;;;;;;;;;7.83;100.00;99486.83;270877;1270;22552;-91
2024/02/29 06:22:14;;;;;;;76.30;33.20;;;;;;;7.84;100.00;99484.34;269860;1271;23576;-93
2024/02/29 06:28:20;;;;;;;71.20;30.90;;;;;;;7.86;100.00;99485.81;269686;1270;22300;-91
2024/02/29 06:34:27;;;;;;;80.60;34.60;;;;;;;7.90;100.00;99484.53;270888;1263;23443;-90
2024/02/29 06:40:31;;;;;;;82.30;33.10;;;;;;;7.98;100.00;99481.02;272348;1259;23568;-91
2024/02/29 06:46:38;;;;;;;55.80;23.50;;;;;;;8.09;100.00;99481.40;272089;1270;22484;-92
2024/02/29 06:52:50;;;;;;;74.80;32.70;;;;;;;8.21;100.00;99480.73;272395;1270;22234;-91
2024/02/29 06:58:52;;;;;;;83.20;33.40;;;;;;;8.30;100.00;99482.10;272531;1270;22377;-90
2024/02/29 07:04:59;;;;;;;79.70;32.30;;;;;;;8.35;100.00;99481.86;272434;1270;22276;-91
2024/02/29 07:11:16;;;;;;;69.70;30.40;;;;;;;8.37;100.00;99478.42;272461;1270;22439;-90
2024/02/29 07:17:32;;;;;;;67.70;29.70;;;;;;;8.41;100.00;99472.43;272263;1271;23078;-91
2024/02/29 07:23:53;;;;;;;78.60;32.40;;;;;;;8.44;100.00;99476.66;272357;1261;22376;-91
2024/02/29 07:30:08;;;;;;;82.30;31.60;;;;;;;8.49;100.00;99478.65;272394;1271;22387;-90
2024/02/29 07:36:10;;;;;;;75.10;30.20;;;;;;;8.53;100.00;99476.05;272240;1271;22541;-89
2024/02/29 07:42:12;;;;;;;65.20;29.10;;;;;;;8.56;100.00;99473.94;270299;1267;22322;-91
2024/02/29 07:48:16;;;;;;;66.20;28.90;;;;;;;8.59;100.00;99465.90;271146;1271;22636;-92
2024/02/29 07:54:22;;;;;;;65.50;26.90;;;;;;;8.65;100.00;99464.10;271415;1270;22511;-91
2024/02/29 08:00:31;;;;;;;59.80;26.80;;;;;;;8.73;100.00;99464.24;272299;1262;22303;-90
2024/02/29 08:06:35;;;;;;;57.40;26.80;;;;;;;8.80;100.00;99461.14;272436;1271;23427;-91
2024/02/29 08:12:37;;;;;;;56.50;24.30;;;;;;;8.86;100.00;99459.77;272301;1271;23142;-90
2024/02/29 08:18:43;;;;;;;50.30;26.30;;;;;;;8.92;100.00;99454.37;272428;1270;22233;-90
2024/02/29 08:24:50;;;;;;;46.90;23.60;;;;;;;9.18;100.00;99457.17;271850;1271;22459;-91
2024/02/29 08:31:00;;;;;;;51.20;23.70;;;;;;;9.43;100.00;99452.61;271734;1261;23742;-91
2024/02/29 08:37:25;;;;;;;48.70;24.20;;;;;;;9.59;100.00;99447.42;270915;1270;22385;-93
2024/02/29 08:43:27;;;;;;;52.30;24.20;;;;;;;9.82;100.00;99449.41;272304;1270;22251;-91
2024/02/29 08:49:34;;;;;;;48.10;24.40;;;;;;;10.04;100.00;99443.40;272426;1271;22426;-91
2024/02/29 08:55:56;;;;;;;;;;;;;;;;;;;;;
2024/02/29 09:02:10;;;;;;;;;;;;;;;;;;;;;
2024/02/29 09:08:41;;;;;;;;;;;;;;;;;;;;;
2024/02/29 09:14:51;;;;;;;48.90;25.30;;;;;;;10.23;100.00;99440.13;272441;1270;22400;-87
2024/02/29 09:20:53;;;;;;;50.60;25.60;;;;;;;10.23;100.00;99441.37;271665;1270;22637;-91
2024/02/29 09:27:08;;;;;;;46.50;23.90;;;;;;;10.34;100.00;99435.01;271650;1271;22493;-90
2024/02/29 09:33:12;;;;;;;49.10;25.60;;;;;;;10.45;100.00;99425.45;272285;1270;23062;-90
2024/02/29 09:39:27;;;;;;;46.70;24.80;;;;;;;10.76;100.00;99416.20;272279;1270;22384;-90
2024/02/29 09:45:58;;;;;;;45.10;25.00;;;;;;;11.04;100.00;99410.58;272549;1270;22372;-91
2024/02/29 09:52:02;;;;;;;42.50;23.10;;;;;;;11.36;100.00;99409.41;272084;1270;22555;-89
2024/02/29 09:58:16;;;;;;;;;;;;;;;;;;;;;
2024/02/29 10:04:19;;;;;;;42.60;23.60;;;;;;;11.73;100.00;99393.10;272362;1270;22284;-90
2024/02/29 10:10:23;;;;;;;44.70;24.90;;;;;;;11.82;100.00;99389.62;271856;1270;22641;-91
2024/02/29 10:16:32;;;;;;;47.50;26.70;;;;;;;11.96;100.00;99387.74;270354;1270;22219;-90
2024/02/29 10:22:37;;;;;;;42.60;24.00;;;;;;;12.04;100.00;99392.40;272386;1271;22566;-88
2024/02/29 10:28:39;;;;;;;47.70;25.70;;;;;;;11.89;100.00;99387.04;272550;1271;22199;-90
2024/02/29 10:34:47;;;;;;;49.20;26.70;;;;;;;11.72;100.00;99379.31;272409;1270;22327;-89
2024/02/29 10:41:03;;;;;;;46.60;26.20;;;;;;;11.66;100.00;99374.29;272385;1270;22542;-91
2024/02/29 10:47:07;;;;;;;46.80;27.20;;;;;;;11.63;100.00;99361.61;272206;1270;23068;-90
2024/02/29 10:53:17;;;;;;;44.70;25.90;;;;;;;11.66;100.00;99350.54;271423;1270;22555;-89
2024/02/29 10:59:19;;;;;;;43.60;25.20;;;;;;;11.71;100.00;99342.63;271711;1270;22309;-91
2024/02/29 11:05:25;;;;;;;48.30;25.70;;;;;;;11.69;100.00;99337.27;272358;1270;22381;-89
2024/02/29 11:11:29;;;;;;;47.40;25.50;;;;;;;11.68;100.00;99335.30;271375;1271;22572;-91
2024/02/29 11:17:33;;;;;;;42.50;25.10;;;;;;;11.71;100.00;99329.08;271942;1270;22328;-90
2024/02/29 11:23:35;;;;;;;43.30;24.90;;;;;;;11.77;100.00;99325.30;272211;1271;22463;-88
2024/02/29 11:29:37;;;;;;;52.20;26.40;;;;;;;11.82;100.00;99315.88;271727;1267;22256;-90
2024/02/29 11:35:42;;;;;;;50.20;26.20;;;;;;;11.84;100.00;99309.80;271798;1271;22564;-90
2024/02/29 11:41:44;;;;;;;321.60;124.00;;;;;;;11.84;100.00;99303.38;269989;1271;22685;-90
2024/02/29 11:47:54;;;;;;;50.80;28.80;;;;;;;11.90;100.00;99301.92;269620;1271;22610;-89
2024/02/29 11:53:56;;;;;;;92.90;39.00;;;;;;;11.87;100.00;99297.13;269800;1271;22582;-89
2024/02/29 11:59:58;;;;;;;111.00;43.20;;;;;;;11.97;100.00;99291.80;269838;1260;22588;-89
2024/02/29 12:06:00;;;;;;;44.20;26.20;;;;;;;12.35;100.00;99283.00;271844;1270;23934;-88
2024/02/29 12:12:04;;;;;;;49.90;27.70;;;;;;;12.78;100.00;99275.64;272451;1270;22255;-89
2024/02/29 12:18:09;;;;;;;46.80;27.20;;;;;;;12.96;100.00;99277.95;272324;1271;22170;-91
2024/02/29 12:24:42;;;;;;;47.70;27.50;;;;;;;13.16;100.00;99265.92;272480;1270;22210;-88
2024/02/29 12:30:49;;;;;;;40.00;26.20;;;;;;;13.16;100.00;99258.39;272468;1271;22278;-92
2024/02/29 12:36:51;;;;;;;44.60;26.70;;;;;;;12.99;100.00;99253.95;272383;1271;22398;-88
2024/02/29 12:42:53;;;;;;;40.30;24.90;;;;;;;13.00;100.00;99243.61;271577;1259;22659;-88
2024/02/29 12:48:55;;;;;;;45.50;26.00;;;;;;;13.20;100.00;99231.77;269996;1268;24065;-90
2024/02/29 12:54:59;;;;;;;40.70;25.00;;;;;;;13.35;100.00;99226.50;270214;1270;22345;-89
2024/02/29 13:01:10;;;;;;;40.60;25.50;;;;;;;13.34;100.00;99216.84;271227;1270;22358;-89
2024/02/29 13:07:15;;;;;;;44.60;26.90;;;;;;;13.25;100.00;99210.91;269882;1270;22607;-91
2024/02/29 13:13:21;;;;;;;45.90;25.10;;;;;;;13.23;100.00;99203.75;270957;1271;22864;-90
2024/02/29 13:19:23;;;;;;;49.50;27.50;;;;;;;13.21;99.91;99193.21;269900;1271;22219;-89
2024/02/29 13:25:25;;;;;;;41.50;26.20;;;;;;;13.22;99.54;99185.37;271940;1271;22246;-91
2024/02/29 13:31:27;;;;;;;42.50;27.30;;;;;;;13.24;99.61;99170.14;272461;1270;22243;-89
2024/02/29 13:37:32;;;;;;;45.10;26.90;;;;;;;13.32;99.22;99159.87;272397;1270;22817;-89
2024/02/29 13:43:34;;;;;;;54.00;28.70;;;;;;;13.34;98.98;99156.74;272344;1271;22381;-88
2024/02/29 13:49:37;;;;;;;56.00;29.00;;;;;;;13.40;99.13;99155.02;272492;1271;22482;-92
2024/02/29 13:55:43;;;;;;;;;;;;;;;13.43;99.32;99152.05;272320;1271;22487;-88
2024/02/29 14:01:48;;;;;;;48.70;26.20;;;;;;;13.41;98.94;99149.06;271969;1270;22573;-91
2024/02/29 14:07:50;;;;;;;47.60;27.30;;;;;;;13.36;98.13;99143.39;269806;1271;23046;-89
2024/02/29 14:13:52;;;;;;;46.00;25.70;;;;;;;13.33;97.63;99138.11;270489;1271;22222;-89
2024/02/29 14:19:54;;;;;;;43.90;24.70;;;;;;;13.28;96.91;99133.16;271746;1271;22557;-88
2024/02/29 14:25:56;;;;;;;48.00;26.00;;;;;;;13.31;97.13;99129.16;269438;1271;22677;-91
2024/02/29 14:31:58;;;;;;;46.30;27.30;;;;;;;13.31;96.89;99123.81;271393;1271;22483;-90
2024/02/29 14:38:04;;;;;;;44.70;26.80;;;;;;;13.29;96.09;99119.11;272309;1270;22358;-89
2024/02/29 14:44:08;;;;;;;46.70;27.30;;;;;;;13.25;95.62;99118.31;270562;1270;22623;-90
2024/02/29 14:50:17;;;;;;;48.30;28.50;;;;;;;13.19;95.74;99116.48;271770;1270;22350;-89
2024/02/29 14:56:42;;;;;;;56.00;30.80;;;;;;;13.11;95.71;99114.88;271533;1262;22358;-90
2024/02/29 15:02:51;;;;;;;57.80;30.00;;;;;;;13.05;96.00;99109.06;270871;1270;22375;-89
2024/02/29 15:09:06;;;;;;;;;;;;;;;;;;;;;
2024/02/29 15:15:17;;;;;;;57.60;30.90;;;;;;;12.81;96.82;99105.27;272630;1270;22270;-89
2024/02/29 15:21:20;;;;;;;60.10;30.70;;;;;;;12.67;97.16;99103.55;271373;1270;23739;-91
2024/02/29 15:27:32;;;;;;;59.00;31.40;;;;;;;12.51;97.48;99100.18;272609;1270;22344;-89
2024/02/29 15:33:44;;;;;;;60.80;33.90;;;;;;;12.35;97.84;99094.05;272368;1264;22994;-90
2024/02/29 15:39:53;;;;;;;55.30;32.60;;;;;;;12.18;98.15;99086.75;272434;1261;22505;-88
2024/02/29 15:52:40;;;;;;;68.30;34.60;;;;;;;11.84;98.90;99081.19;272438;1270;22798;-90
2024/02/29 15:58:43;;;;;;;62.40;35.30;;;;;;;11.66;99.33;99084.09;271523;1270;23916;-88
2024/02/29 16:04:48;;;;;;;62.60;34.90;;;;;;;11.49;99.71;99081.80;271649;1270;23139;-89
2024/02/29 16:11:05;;;;;;;63.20;35.30;;;;;;;11.28;100.00;99081.62;272214;1270;22206;-90
2024/02/29 16:17:10;;;;;;;66.30;35.20;;;;;;;11.09;100.00;99078.60;272204;1270;22303;-90
2024/02/29 16:23:13;;;;;;;59.00;34.70;;;;;;;10.90;100.00;99074.33;272566;1270;22442;-89
2024/02/29 16:29:15;;;;;;;60.40;34.10;;;;;;;10.74;100.00;99066.64;272452;1270;22420;-89
2024/02/29 16:35:17;;;;;;;65.90;37.30;;;;;;;10.58;100.00;99067.86;272481;1270;22352;-89
2024/02/29 16:41:19;;;;;;;67.30;35.50;;;;;;;10.41;100.00;99069.69;272663;1259;22369;-88
2024/02/29 16:47:21;;;;;;;63.90;36.60;;;;;;;10.27;100.00;99063.95;272234;1270;22294;-88
2024/02/29 16:53:34;;;;;;;61.00;35.60;;;;;;;10.19;100.00;99059.62;272497;1270;183001;-89
2024/02/29 16:59:56;;;;;;;64.90;35.60;;;;;;;10.08;100.00;99054.05;273088;1273;22136;-89
2024/02/29 17:06:13;;;;;;;66.40;35.10;;;;;;;9.97;100.00;99057.79;272190;1270;23654;-90
2024/02/29 17:12:39;;;;;;;;;;;;;;;;;;;;;
2024/02/29 17:19:31;;;;;;;66.10;34.70;;;;;;;9.74;100.00;99065.88;270632;1272;22250;-90
2024/02/29 17:26:57;;;;;;;69.50;38.80;;;;;;;9.65;100.00;99064.96;264602;1272;10001472;-88
2024/02/29 17:33:48;;;;;;;76.80;40.00;;;;;;;9.52;100.00;99065.38;272507;1273;22255;-88
2024/02/29 17:40:34;;;;;;;70.70;41.00;;;;;;;9.39;100.00;99062.75;271814;1272;22605;-89
2024/02/29 17:46:40;;;;;;;75.80;44.70;;;;;;;9.30;100.00;99061.42;270182;1272;22671;-88
2024/02/29 17:52:49;;;;;;;72.10;41.80;;;;;;;9.19;100.00;99053.34;272381;1260;22205;-89
2024/02/29 17:58:52;;;;;;;71.10;40.10;;;;;;;9.08;100.00;99047.45;272270;1272;22208;-89
2024/02/29 18:04:54;;;;;;;73.80;37.70;;;;;;;8.97;100.00;99040.55;270740;1272;22530;-89
2024/02/29 18:10:56;;;;;;;69.60;39.10;;;;;;;8.86;100.00;99034.98;270283;1272;22473;-89
2024/02/29 18:17:02;;;;;;;68.00;38.10;;;;;;;8.77;100.00;99030.80;271665;1270;22583;-90
2024/02/29 18:23:04;;;;;;;64.20;35.70;;;;;;;8.66;100.00;99034.19;270731;1270;22648;-89
2024/02/29 18:29:05;;;;;;;77.00;39.40;;;;;;;8.58;100.00;99030.52;272363;1270;23112;-89
2024/02/29 18:35:09;;;;;;;78.10;42.60;;;;;;;8.48;100.00;99025.65;272594;1270;22233;-88
2024/02/29 18:41:11;;;;;;;85.90;42.90;;;;;;;8.43;100.00;99022.59;272353;1270;22361;-89
2024/02/29 18:47:14;;;;;;;86.90;44.70;;;;;;;8.36;100.00;99019.42;272440;1270;22221;-89
2024/02/29 18:53:18;;;;;;;85.10;43.90;;;;;;;8.30;100.00;99016.33;272554;1270;22209;-89
2024/02/29 18:59:20;;;;;;;87.00;44.20;;;;;;;8.25;100.00;99014.05;271789;1270;22631;-88
2024/02/29 19:05:26;;;;;;;90.80;46.30;;;;;;;8.20;100.00;99008.61;271913;1270;22337;-88
2024/02/29 19:11:27;;;;;;;105.30;49.60;;;;;;;8.14;100.00;99000.38;272318;1270;22447;-89
2024/02/29 19:17:32;;;;;;;112.60;54.10;;;;;;;8.06;100.00;98994.14;272476;1270;22362;-90
2024/02/29 19:23:37;;;;;;;132.90;62.50;;;;;;;7.95;100.00;98988.80;272334;1270;22574;-90
2024/02/29 19:29:40;;;;;;;116.90;52.50;;;;;;;7.89;100.00;98983.35;272338;1270;22846;-89
2024/02/29 19:35:51;;;;;;;103.80;52.10;;;;;;;7.82;100.00;98979.46;272403;1270;22343;-89
2024/02/29 19:41:57;;;;;;;100.10;49.30;;;;;;;7.77;100.00;98974.07;272437;1270;22330;-89
2024/02/29 19:48:03;;;;;;;100.50;49.90;;;;;;;7.75;100.00;98972.61;272313;1270;23087;-90
2024/02/29 19:54:06;;;;;;;116.70;56.70;;;;;;;7.72;100.00;98973.96;272487;1270;23377;-89
2024/02/29 20:00:10;;;;;;;116.50;54.30;;;;;;;7.69;100.00;98978.39;272222;1270;22340;-88
2024/02/29 20:06:15;;;;;;;;;;;;;;;7.64;100.00;98973.48;272427;1270;22442;-89
2024/02/29 20:12:17;;;;;;;103.90;50.10;;;;;;;7.53;100.00;98961.70;272502;1270;23337;-89
2024/02/29 20:18:22;;;;;;;102.50;49.60;;;;;;;7.45;100.00;98960.50;272484;1270;23577;-88
2024/02/29 20:24:24;;;;;;;112.50;53.80;;;;;;;7.42;100.00;98951.33;272497;1270;23831;-90
2024/02/29 20:30:35;;;;;;;115.60;55.60;;;;;;;7.42;100.00;98950.55;272540;1270;22410;-89
2024/02/29 20:36:44;;;;;;;115.00;54.80;;;;;;;7.40;100.00;98950.52;272438;1270;23618;-89
2024/02/29 20:42:47;;;;;;;115.20;54.90;;;;;;;7.35;100.00;98945.65;272530;1270;23278;-88
2024/02/29 20:48:50;;;;;;;116.00;55.50;;;;;;;7.32;100.00;98942.22;272396;1268;22239;-89
2024/02/29 20:54:52;;;;;;;119.70;56.20;;;;;;;7.25;100.00;98934.45;272552;1270;22411;-89
2024/02/29 21:00:55;;;;;;;132.20;59.10;;;;;;;7.21;100.00;98932.25;272359;1270;22343;-91
2024/02/29 21:06:57;;;;;;;126.20;61.40;;;;;;;7.20;100.00;98925.47;272588;1270;23046;-88
2024/02/29 21:12:59;;;;;;;136.50;61.10;;;;;;;7.18;100.00;98909.02;272512;1270;23630;-90
2024/02/29 21:19:01;;;;;;;133.30;61.50;;;;;;;7.15;100.00;98906.50;272516;1270;22690;-88
2024/02/29 21:25:06;;;;;;;140.70;62.60;;;;;;;7.12;100.00;98899.92;273081;1274;22220;-89
2024/02/29 21:31:09;;;;;;;132.80;61.90;;;;;;;7.11;100.00;98887.68;272656;1270;22284;-90
2024/02/29 21:37:11;;;;;;;129.80;61.50;;;;;;;7.09;100.00;98879.95;272489;1270;23667;-90
2024/02/29 21:43:13;;;;;;;129.20;61.10;;;;;;;7.05;100.00;98874.55;272679;1270;22317;-90
2024/02/29 21:49:16;;;;;;;127.80;60.40;;;;;;;7.02;100.00;98865.61;272572;1270;22260;-88
2024/02/29 21:55:18;;;;;;;140.70;62.70;;;;;;;7.02;100.00;98853.47;270703;1270;22552;-89
2024/02/29 22:01:20;;;;;;;142.00;65.10;;;;;;;7.04;100.00;98851.98;272499;1270;22348;-88
2024/02/29 22:07:22;;;;;;;149.70;68.70;;;;;;;7.08;100.00;98849.98;271514;1270;22581;-89
2024/02/29 22:13:24;;;;;;;144.20;66.20;;;;;;;7.14;100.00;98850.27;271142;1270;23302;-88
2024/02/29 22:19:26;;;;;;;160.10;68.70;;;;;;;7.20;100.00;98851.86;272378;1270;22222;-89
2024/02/29 22:25:28;;;;;;;167.50;72.30;;;;;;;7.23;100.00;98850.30;272518;1270;22197;-88
2024/02/29 22:31:30;;;;;;;172.00;70.20;;;;;;;7.24;100.00;98840.60;272450;1271;22313;-89
2024/02/29 22:37:35;;;;;;;166.50;70.50;;;;;;;7.25;100.00;98830.83;272545;1270;22422;-89
2024/02/29 22:43:37;;;;;;;144.60;64.90;;;;;;;7.25;100.00;98826.55;272535;1270;22181;-88
2024/02/29 22:49:41;;;;;;;170.50;73.00;;;;;;;7.27;100.00;98826.27;270972;1270;22647;-89
2024/02/29 22:55:43;;;;;;;166.30;72.20;;;;;;;7.24;100.00;98817.80;270924;1270;22621;-89
2024/02/29 23:01:45;;;;;;;177.30;73.80;;;;;;;7.22;100.00;98808.29;271181;1270;22546;-89
2024/02/29 23:07:47;;;;;;;154.90;67.70;;;;;;;7.21;100.00;98799.79;270623;1270;22229;-88
2024/02/29 23:13:49;;;;;;;182.30;73.60;;;;;;;7.20;100.00;98785.30;272555;1270;23419;-88
2024/02/29 23:19:51;;;;;;;170.90;69.10;;;;;;;7.19;100.00;98774.92;272316;1270;22389;-88
2024/02/29 23:25:56;;;;;;;180.80;70.70;;;;;;;7.18;100.00;98777.92;272617;1267;22215;-88
2024/02/29 23:31:58;;;;;;;164.80;71.20;;;;;;;7.17;100.00;98771.30;272428;1270;22287;-91
2024/02/29 23:38:00;;;;;;;192.80;70.30;;;;;;;7.16;100.00;98770.34;272636;1270;22381;-89
2024/02/29 23:44:02;;;;;;;156.90;67.30;;;;;;;7.13;100.00;98767.17;272552;1270;22301;-88
2024/02/29 23:50:05;;;;;;;153.90;66.40;;;;;;;7.12;100.00;98761.86;272414;1265;23880;-88
2024/02/29 23:56:07;;;;;;;202.90;69.80;;;;;;;7.10;100.00;98753.34;272478;1270;22327;-89
